Isla de Contadora, Panama
Current Conditions -  °F | °C
As of 3:00 PM on Saturday 25 Oct 2014 (Local Time) from MPTO Reporting Station
Scattered Clouds Scattered Clouds  
Wind Chill: 84°   Ceiling: Unl
Heat Index: 92°   Visibility: 6mi
Dew Point: 75°   Wind: 3mph
Humidity: 74%   Direction: 360°N
Pressure: 29.8"   Gusts: NA
Location:  8.63°N, 79.03°W
Report Text: MPTO 252000Z 36003KT 9999 SCT018 SCT090 29/24 Q1009 NOSIG
Loading
Personal Weather Stations






























Interactive Weather Map
Tropical Storm Tracking
New forecast layout! Learn more

10-Day Weather Forecast

Advertisements
Track Severe Weather on mobile